Time;durP1;ratioP1;P1;durP2;ratioP2;P2;SDS_P1;SDS_P2;PMS_P1;PMS_P2;Temp;Humidity;BMP_temperature;BMP_pressure;BME280_temperature;BME280_humidity;BME280_pressure;Samples;Min_cycle;Max_cycle;Signal;HPM_P1;HPM_P2
2023/04/20 00:02:01;;;;;;;15.30;12.70;;;8.70;99.90;;;;;;12790583;23;20242;-80
2023/04/20 00:07:05;;;;;;;23.77;18.77;;;8.90;99.90;;;;;;12810227;23;20502;-80
2023/04/20 00:12:07;;;;;;;24.47;18.70;;;8.60;99.90;;;;;;12793549;23;20246;-80
2023/04/20 00:17:10;;;;;;;23.83;17.87;;;8.40;99.90;;;;;;12794376;23;20234;-80
2023/04/20 00:22:12;;;;;;;25.40;18.70;;;8.50;99.90;;;;;;12794205;23;20180;-80
2023/04/20 00:27:15;;;;;;;28.37;19.43;;;8.80;99.90;;;;;;12766405;23;20647;-80
2023/04/20 00:32:17;;;;;;;16.43;13.17;;;8.90;99.90;;;;;;12767108;23;20242;-80
2023/04/20 00:37:24;;;;;;;24.10;19.10;;;9.00;99.90;;;;;;12767318;23;20515;-80
2023/04/20 00:42:29;;;;;;;27.20;19.27;;;9.00;99.90;;;;;;12812265;23;20507;-80
2023/04/20 00:47:32;;;;;;;22.17;17.63;;;9.00;99.90;;;;;;12793767;23;20199;-80
2023/04/20 00:52:37;;;;;;;27.00;19.07;;;8.90;99.90;;;;;;12767250;23;20179;-80
2023/04/20 00:57:40;;;;;;;24.37;19.17;;;8.60;99.90;;;;;;12767504;23;20199;-80
2023/04/20 01:02:43;;;;;;;24.73;19.50;;;8.70;99.90;;;;;;12767538;23;20242;-80
2023/04/20 01:07:45;;;;;;;20.73;14.90;;;8.80;99.90;;;;;;12766958;23;20234;-80
2023/04/20 01:12:48;;;;;;;29.07;21.67;;;8.80;99.90;;;;;;12793809;23;20222;-80
2023/04/20 01:17:51;;;;;;;27.40;20.13;;;8.70;99.90;;;;;;12766938;23;20256;-81
2023/04/20 01:22:53;;;;;;;26.57;19.70;;;8.40;99.90;;;;;;12766490;23;20176;-80
2023/04/20 01:27:56;;;;;;;27.60;20.10;;;8.40;99.90;;;;;;12767119;23;20231;-80
2023/04/20 01:32:58;;;;;;;27.03;20.63;;;8.20;99.90;;;;;;12793858;23;20202;-80
2023/04/20 01:38:01;;;;;;;29.70;21.03;;;8.30;99.90;;;;;;12766559;23;20260;-80
2023/04/20 01:43:05;;;;;;;19.70;15.47;;;8.20;99.90;;;;;;12766157;23;20237;-80
2023/04/20 01:48:07;;;;;;;24.33;17.50;;;8.20;99.90;;;;;;12765201;23;20265;-80
2023/04/20 01:53:12;;;;;;;27.80;20.73;;;8.10;99.90;;;;;;12792846;23;20180;-81
2023/04/20 01:58:15;;;;;;;18.53;15.10;;;8.10;99.90;;;;;;12765859;23;20199;-80
2023/04/20 02:03:18;;;;;;;19.50;14.90;;;8.20;99.90;;;;;;12765442;23;20183;-80
2023/04/20 02:08:21;;;;;;;22.50;16.90;;;8.50;99.90;;;;;;12791720;23;20184;-80
2023/04/20 02:13:24;;;;;;;27.53;20.07;;;8.50;99.90;;;;;;12765611;23;20184;-80
2023/04/20 02:18:29;;;;;;;29.00;20.47;;;8.40;99.90;;;;;;12741223;23;20192;-80
2023/04/20 02:23:31;;;;;;;28.40;20.63;;;8.20;99.90;;;;;;12767039;23;20164;-80
2023/04/20 02:28:34;;;;;;;29.70;20.83;;;8.20;99.90;;;;;;12765493;23;20180;-80
2023/04/20 02:33:39;;;;;;;25.00;18.43;;;8.10;99.90;;;;;;12765744;23;20184;-80
2023/04/20 02:38:42;;;;;;;29.83;19.63;;;8.10;99.90;;;;;;12766310;23;20195;-80
2023/04/20 02:43:44;;;;;;;26.47;18.77;;;8.00;99.90;;;;;;12765634;23;20180;-80
2023/04/20 02:48:47;;;;;;;28.77;21.10;;;8.10;99.90;;;;;;12752092;23;20208;-80
2023/04/20 02:53:50;;;;;;;24.77;17.13;;;7.90;99.90;;;;;;12703432;23;20246;-80
2023/04/20 02:59:03;;;;;;;22.43;18.30;;;7.80;99.90;;;;;;12703461;23;20204;-80
2023/04/20 03:04:18;;;;;;;19.17;14.17;;;8.10;99.90;;;;;;12703333;23;20176;-80
2023/04/20 03:09:28;;;;;;;20.60;15.47;;;8.40;99.90;;;;;;12703592;23;20583;-80
2023/04/20 03:14:47;;;;;;;22.17;16.40;;;8.20;99.90;;;;;;12703116;23;20184;-80
2023/04/20 03:19:52;;;;;;;24.37;18.67;;;8.10;99.90;;;;;;12703130;23;20247;-80
2023/04/20 03:24:55;;;;;;;28.00;20.10;;;7.90;99.90;;;;;;12702491;23;20176;-80
2023/04/20 03:30:24;;;;;;;24.40;18.40;;;7.70;99.90;;;;;;12725556;23;20181;-80
2023/04/20 03:35:33;;;;;;;28.73;20.30;;;7.60;99.90;;;;;;12705252;23;20528;-80
2023/04/20 03:40:36;;;;;;;30.33;20.90;;;7.60;99.90;;;;;;12703274;23;20196;-79
2023/04/20 03:45:39;;;;;;;19.87;14.53;;;7.40;99.90;;;;;;12721209;23;20595;-79
2023/04/20 03:50:41;;;;;;;17.60;13.87;;;7.40;99.90;;;;;;12767729;23;20650;-81
2023/04/20 03:55:44;;;;;;;23.07;17.53;;;7.30;99.90;;;;;;12767932;23;20234;-79
2023/04/20 04:00:51;;;;;;;34.07;21.30;;;7.20;99.90;;;;;;12767306;23;20200;-79
2023/04/20 04:05:54;;;;;;;28.53;20.67;;;7.20;99.90;;;;;;12768078;23;20247;-79
2023/04/20 04:10:57;;;;;;;29.67;21.20;;;7.20;99.90;;;;;;12768939;23;20194;-79
2023/04/20 04:15:59;;;;;;;19.83;15.40;;;7.50;99.90;;;;;;12767851;23;20523;-79
2023/04/20 04:21:02;;;;;;;32.23;19.77;;;8.30;99.90;;;;;;12767322;23;20811;-79
2023/04/20 04:26:05;;;;;;;29.23;20.93;;;8.40;99.90;;;;;;12767722;23;20215;-80
2023/04/20 04:31:11;;;;;;;23.10;18.83;;;7.90;99.90;;;;;;12768181;23;20262;-80
2023/04/20 04:36:14;;;;;;;27.93;20.83;;;7.60;99.90;;;;;;12767520;23;20184;-80
2023/04/20 04:41:17;;;;;;;23.67;19.53;;;7.80;99.90;;;;;;12768341;23;20668;-79
2023/04/20 04:46:24;;;;;;;28.30;21.40;;;7.90;99.90;;;;;;12764071;23;20204;-80
2023/04/20 04:51:27;;;;;;;31.10;24.63;;;7.80;99.90;;;;;;12767356;23;20176;-80
2023/04/20 04:56:29;;;;;;;31.40;24.33;;;7.90;99.90;;;;;;12767103;23;20176;-80
2023/04/20 05:01:31;;;;;;;35.63;26.93;;;8.00;99.90;;;;;;12794010;23;20199;-80
2023/04/20 05:06:34;;;;;;;28.40;21.43;;;8.10;99.90;;;;;;12794239;23;20184;-80
2023/04/20 05:11:37;;;;;;;33.80;23.53;;;8.30;99.90;;;;;;12811913;23;20227;-79
2023/04/20 05:16:39;;;;;;;29.67;22.10;;;8.50;99.90;;;;;;12794002;23;20172;-80
2023/04/20 05:21:42;;;;;;;27.60;18.87;;;8.70;99.90;;;;;;12794362;23;20164;-79
2023/04/20 05:26:47;;;;;;;28.00;21.20;;;8.80;99.90;;;;;;12793092;23;20209;-80
2023/04/20 05:31:50;;;;;;;27.07;20.90;;;9.10;99.90;;;;;;12810507;23;20172;-79
2023/04/20 05:36:53;;;;;;;27.77;20.27;;;9.40;99.90;;;;;;12767161;23;20176;-79
2023/04/20 05:41:56;;;;;;;21.20;16.03;;;9.40;99.90;;;;;;12793089;23;20535;-79
2023/04/20 05:46:59;;;;;;;23.63;17.57;;;9.70;99.90;;;;;;12792150;23;20671;-79
2023/04/20 05:52:02;;;;;;;20.00;14.40;;;10.00;99.90;;;;;;12766848;23;20183;-80
2023/04/20 05:57:05;;;;;;;22.90;17.90;;;10.00;99.90;;;;;;12766505;23;20645;-80
2023/04/20 06:02:07;;;;;;;22.00;16.80;;;9.70;99.90;;;;;;12790763;23;20187;-80
2023/04/20 06:07:10;;;;;;;26.90;19.03;;;9.70;99.90;;;;;;12766162;23;20235;-80
2023/04/20 06:12:12;;;;;;;23.20;18.37;;;9.70;99.90;;;;;;12810936;23;20192;-80
2023/04/20 06:17:15;;;;;;;21.43;15.60;;;9.90;99.90;;;;;;12792348;23;20320;-80
2023/04/20 06:22:18;;;;;;;22.20;16.37;;;10.10;99.90;;;;;;12792301;23;20637;-80
2023/04/20 06:27:21;;;;;;;24.20;16.93;;;10.30;99.90;;;;;;12766196;23;20635;-80
2023/04/20 06:32:23;;;;;;;12.67;10.83;;;10.40;99.90;;;;;;12805295;23;20230;-80
2023/04/20 06:37:26;;;;;;;12.30;9.53;;;10.90;99.90;;;;;;12764726;23;20664;-80
2023/04/20 06:42:29;;;;;;;17.50;13.70;;;11.60;99.90;;;;;;12792159;23;20168;-80
2023/04/20 06:47:32;;;;;;;25.07;13.23;;;11.60;99.90;;;;;;12765326;23;20254;-80
2023/04/20 06:52:39;;;;;;;12.30;10.83;;;12.00;99.90;;;;;;12790327;23;20188;-80
2023/04/20 06:57:42;;;;;;;17.73;14.37;;;12.00;99.90;;;;;;12782760;23;20215;-80
2023/04/20 07:02:47;;;;;;;24.03;15.07;;;12.20;99.90;;;;;;12791869;23;20237;-80
2023/04/20 07:07:50;;;;;;;17.37;14.57;;;12.20;99.90;;;;;;12791720;23;20180;-80
2023/04/20 07:12:53;;;;;;;14.67;11.07;;;12.50;99.90;;;;;;12791628;23;20183;-81
2023/04/20 07:17:55;;;;;;;9.03;6.67;;;12.70;99.90;;;;;;12792590;23;20179;-82
2023/04/20 07:22:58;;;;;;;20.73;14.73;;;13.30;99.90;;;;;;12795884;23;20179;-82
2023/04/20 07:28:00;;;;;;;8.17;7.07;;;13.60;99.90;;;;;;12795097;23;20214;-82
2023/04/20 07:33:03;;;;;;;14.17;9.73;;;13.60;99.90;;;;;;12792753;23;20200;-84
2023/04/20 07:38:05;;;;;;;17.90;12.13;;;14.00;99.90;;;;;;12795598;23;20238;-81
2023/04/20 07:43:08;;;;;;;10.67;8.07;;;14.00;99.90;;;;;;12793613;23;20237;-80
2023/04/20 07:48:11;;;;;;;12.17;9.00;;;14.30;99.90;;;;;;12731187;23;20703;-79
2023/04/20 07:53:14;;;;;;;14.50;11.97;;;14.30;99.90;;;;;;12731376;23;20184;-80
2023/04/20 07:58:16;;;;;;;9.33;7.60;;;14.50;99.90;;;;;;12703657;23;20686;-80
2023/04/20 08:03:19;;;;;;;15.80;10.40;;;14.70;99.90;;;;;;12729158;23;20168;-80
2023/04/20 08:08:22;;;;;;;24.63;17.00;;;14.90;99.90;;;;;;12727370;23;20168;-79
2023/04/20 08:13:26;;;;;;;15.00;12.73;;;15.00;99.90;;;;;;12727313;23;20243;-78
2023/04/20 08:18:30;;;;;;;21.77;13.23;;;15.30;99.90;;;;;;12727085;23;20208;-79
2023/04/20 08:23:33;;;;;;;17.63;14.00;;;15.30;99.90;;;;;;12730691;23;20239;-80
2023/04/20 08:28:36;;;;;;;15.80;11.90;;;15.40;99.90;;;;;;12731344;23;20648;-80
2023/04/20 08:33:38;;;;;;;15.80;12.70;;;15.20;99.90;;;;;;12729448;23;20213;-79
2023/04/20 08:38:40;;;;;;;13.57;10.83;;;15.30;99.90;;;;;;12732641;23;20538;-80
2023/04/20 08:43:44;;;;;;;16.90;13.77;;;15.50;99.90;;;;;;12730699;23;20170;-79
2023/04/20 08:48:47;;;;;;;14.70;12.87;;;15.60;99.90;;;;;;12780428;23;20202;-79
2023/04/20 08:53:50;;;;;;;12.17;9.77;;;16.20;98.00;;;;;;12791111;23;20522;-79
2023/04/20 08:58:58;;;;;;;10.93;7.77;;;16.70;99.90;;;;;;12791864;23;20235;-79
2023/04/20 09:04:01;;;;;;;8.13;6.07;;;16.40;98.30;;;;;;12799764;23;20522;-79
2023/04/20 09:09:10;;;;;;;14.47;8.63;;;16.80;98.00;;;;;;12765095;23;20250;-79
2023/04/20 09:14:16;;;;;;;13.60;10.83;;;17.10;96.50;;;;;;12781750;23;20516;-79
2023/04/20 09:19:26;;;;;;;8.90;6.90;;;17.30;95.70;;;;;;12789160;23;20536;-80
2023/04/20 09:24:34;;;;;;;10.00;8.47;;;17.10;95.30;;;;;;12789297;23;20180;-80
2023/04/20 09:29:36;;;;;;;8.10;7.30;;;17.10;94.50;;;;;;12805269;23;20172;-81
2023/04/20 09:34:43;;;;;;;10.70;8.73;;;17.00;95.30;;;;;;12788293;23;20848;-81
2023/04/20 09:39:46;;;;;;;17.13;12.23;;;16.70;94.50;;;;;;12762707;23;20254;-83
2023/04/20 09:44:49;;;;;;;12.57;10.63;;;16.60;94.60;;;;;;12788529;23;20164;-79
2023/04/20 09:49:53;;;;;;;8.17;6.43;;;16.70;96.10;;;;;;12795039;23;20174;-79
2023/04/20 09:54:57;;;;;;;7.00;5.47;;;16.80;96.00;;;;;;12790134;23;20685;-79
2023/04/20 10:00:00;;;;;;;14.33;12.27;;;17.10;95.40;;;;;;12762745;23;20205;-79
2023/04/20 10:05:03;;;;;;;13.47;11.20;;;17.20;93.40;;;;;;12788739;23;20164;-78
2023/04/20 10:10:08;;;;;;;15.00;12.27;;;17.00;93.70;;;;;;12789481;23;20180;-79
2023/04/20 10:15:11;;;;;;;10.57;9.13;;;17.10;94.10;;;;;;12788204;23;20218;-78
2023/04/20 10:20:25;;;;;;;8.20;6.27;;;17.20;91.80;;;;;;12790798;23;20236;-79
2023/04/20 10:25:28;;;;;;;6.60;5.90;;;17.40;89.00;;;;;;12807326;23;20168;-79
2023/04/20 10:30:33;;;;;;;7.87;6.20;;;17.50;87.60;;;;;;12763876;23;20180;-79
2023/04/20 10:35:43;;;;;;;7.77;6.13;;;17.50;86.00;;;;;;12787946;23;20509;-79
2023/04/20 10:40:47;;;;;;;10.93;8.93;;;17.40;91.80;;;;;;12807085;23;20313;-79
2023/04/20 10:45:50;;;;;;;12.50;9.47;;;17.60;90.30;;;;;;12789705;23;20196;-79
2023/04/20 10:50:53;;;;;;;8.93;8.03;;;17.40;90.50;;;;;;12789761;23;20206;-79
2023/04/20 10:55:59;;;;;;;9.17;7.43;;;17.60;92.10;;;;;;12762322;23;20180;-80
2023/04/20 11:01:04;;;;;;;7.30;5.80;;;17.80;91.70;;;;;;12789789;23;20244;-80
2023/04/20 11:06:06;;;;;;;6.70;5.87;;;18.00;90.30;;;;;;12787945;23;20186;-83
2023/04/20 11:11:28;;;;;;;7.33;5.90;;;18.10;88.40;;;;;;12738820;23;20183;-80
2023/04/20 11:16:31;;;;;;;6.50;5.67;;;18.10;84.30;;;;;;12762730;23;20257;-79
2023/04/20 11:21:52;;;;;;;6.67;5.67;;;18.40;88.30;;;;;;12807212;23;20293;-81
2023/04/20 11:26:54;;;;;;;7.60;5.53;;;18.50;82.70;;;;;;12787613;23;20176;-80
2023/04/20 11:31:59;;;;;;;8.00;6.00;;;18.50;84.80;;;;;;12762857;23;20193;-81
2023/04/20 11:37:06;;;;;;;6.73;5.53;;;18.50;82.90;;;;;;12763568;23;20173;-81
2023/04/20 11:42:09;;;;;;;7.97;5.27;;;18.50;87.00;;;;;;12763501;23;20204;-79
2023/04/20 11:47:12;;;;;;;5.90;5.40;;;18.40;82.50;;;;;;12786664;23;20208;-80
2023/04/20 11:52:15;;;;;;;7.80;5.23;;;18.40;79.70;;;;;;12787838;23;20235;-79
2023/04/20 11:57:17;;;;;;;10.17;5.80;;;18.30;78.00;;;;;;12762570;23;20184;-80
2023/04/20 12:02:20;;;;;;;5.63;4.90;;;18.20;81.00;;;;;;12790162;23;20189;-80
2023/04/20 12:07:22;;;;;;;7.03;4.43;;;18.30;82.30;;;;;;12792700;23;20166;-80
2023/04/20 12:12:25;;;;;;;6.37;4.30;;;18.10;74.80;;;;;;12792851;23;20171;-80
2023/04/20 12:17:28;;;;;;;6.27;5.53;;;18.20;82.90;;;;;;12765058;23;20190;-79
2023/04/20 12:22:30;;;;;;;9.77;5.40;;;18.00;77.20;;;;;;12789949;23;20818;-80
2023/04/20 12:27:33;;;;;;;10.10;5.33;;;18.00;79.60;;;;;;12808091;23;20224;-79
2023/04/20 12:32:35;;;;;;;5.83;4.77;;;18.20;78.90;;;;;;12788777;23;20568;-78
2023/04/20 12:37:38;;;;;;;7.40;5.37;;;18.30;80.50;;;;;;12789152;23;20224;-79
2023/04/20 12:42:40;;;;;;;8.63;5.47;;;18.20;78.80;;;;;;12790770;23;20262;-78
2023/04/20 12:47:43;;;;;;;10.97;4.87;;;18.00;76.80;;;;;;12788690;23;20286;-78
2023/04/20 12:52:45;;;;;;;7.80;5.47;;;17.80;82.00;;;;;;12763452;23;20174;-79
2023/04/20 12:57:48;;;;;;;11.90;6.57;;;17.80;84.10;;;;;;12788454;23;20239;-78
2023/04/20 13:02:50;;;;;;;5.23;4.70;;;17.90;74.30;;;;;;12789688;23;20189;-78
2023/04/20 13:07:53;;;;;;;12.53;5.93;;;18.00;83.40;;;;;;12789426;23;20168;-78
2023/04/20 13:12:56;;;;;;;9.37;4.47;;;18.00;75.90;;;;;;12808463;23;20195;-78
2023/04/20 13:17:59;;;;;;;7.00;4.83;;;18.10;75.90;;;;;;12787549;23;20218;-80
2023/04/20 13:23:03;;;;;;;10.03;3.37;;;18.10;81.10;;;;;;12789921;23;20192;-79
2023/04/20 13:28:05;;;;;;;9.63;4.90;;;18.20;71.90;;;;;;12738878;23;20262;-80
2023/04/20 13:33:08;;;;;;;11.73;4.23;;;18.20;75.10;;;;;;12790079;23;20207;-80
2023/04/20 13:38:11;;;;;;;9.67;4.93;;;18.30;78.20;;;;;;12763974;23;20167;-80
2023/04/20 13:43:13;;;;;;;13.00;4.57;;;18.30;74.90;;;;;;12763152;23;20251;-80
2023/04/20 13:48:16;;;;;;;8.70;4.20;;;18.30;72.50;;;;;;12788297;23;20586;-81
2023/04/20 13:53:18;;;;;;;9.90;5.37;;;18.50;69.30;;;;;;12763650;23;20276;-79
2023/04/20 13:58:21;;;;;;;12.53;5.50;;;18.50;70.70;;;;;;12787470;23;20172;-79
2023/04/20 14:03:25;;;;;;;15.43;4.63;;;18.30;67.80;;;;;;12787686;23;20211;-80
2023/04/20 14:08:29;;;;;;;9.77;4.77;;;18.20;70.00;;;;;;12785258;23;20242;-79
2023/04/20 14:13:32;;;;;;;6.33;5.07;;;18.30;68.10;;;;;;12763696;23;20512;-80
2023/04/20 14:18:34;;;;;;;10.07;5.97;;;18.50;75.00;;;;;;12763149;23;20195;-80
2023/04/20 14:23:37;;;;;;;12.43;5.10;;;18.50;71.20;;;;;;12789729;23;20190;-80
2023/04/20 14:28:39;;;;;;;12.73;5.33;;;18.30;72.10;;;;;;12789900;23;20170;-80
2023/04/20 14:33:43;;;;;;;12.30;5.23;;;18.20;70.70;;;;;;12762802;23;20236;-80
2023/04/20 14:38:46;;;;;;;10.10;5.10;;;18.10;70.80;;;;;;12762343;23;20246;-79
2023/04/20 14:43:48;;;;;;;11.27;4.27;;;18.10;71.70;;;;;;12789725;23;20205;-82
2023/04/20 14:48:51;;;;;;;18.10;5.23;;;18.20;77.80;;;;;;12787507;23;20570;-79
2023/04/20 14:53:53;;;;;;;10.00;5.43;;;18.20;75.30;;;;;;12784302;23;20598;-80
2023/04/20 14:58:58;;;;;;;7.10;4.27;;;18.20;75.30;;;;;;12756311;23;20721;-80
2023/04/20 15:04:00;;;;;;;6.40;4.90;;;18.20;74.60;;;;;;12757681;23;20649;-80
2023/04/20 15:09:03;;;;;;;11.17;3.93;;;18.20;76.30;;;;;;12783701;23;20231;-80
2023/04/20 15:14:06;;;;;;;8.93;4.03;;;18.20;76.10;;;;;;12760509;23;20173;-80
2023/04/20 15:19:08;;;;;;;18.67;5.27;;;18.30;75.70;;;;;;12756119;23;20741;-80
2023/04/20 15:24:11;;;;;;;10.37;4.40;;;18.20;71.30;;;;;;12784569;23;20727;-80
2023/04/20 15:29:13;;;;;;;12.93;5.57;;;18.10;76.50;;;;;;12803351;23;20220;-81
2023/04/20 15:34:16;;;;;;;13.33;4.67;;;17.90;75.10;;;;;;12785304;23;20180;-80
2023/04/20 15:39:19;;;;;;;4.73;2.90;;;17.90;70.40;;;;;;12763710;23;20190;-80
2023/04/20 15:44:24;;;;;;;15.93;5.27;;;17.90;78.90;;;;;;12791865;23;20179;-81
2023/04/20 15:49:26;;;;;;;10.93;4.07;;;18.00;74.30;;;;;;12766520;23;20204;-80
2023/04/20 15:54:29;;;;;;;10.93;4.70;;;18.00;76.60;;;;;;12793927;23;20599;-78
2023/04/20 15:59:31;;;;;;;10.07;3.77;;;18.00;67.20;;;;;;12791974;23;20211;-80
2023/04/20 16:04:34;;;;;;;10.47;3.13;;;18.00;68.90;;;;;;12792152;23;20535;-80
2023/04/20 16:09:36;;;;;;;5.10;3.70;;;17.90;65.60;;;;;;12766922;23;20570;-79
2023/04/20 16:14:39;;;;;;;9.40;3.80;;;17.80;65.90;;;;;;12792620;23;20198;-78
2023/04/20 16:19:41;;;;;;;6.93;3.40;;;17.70;66.40;;;;;;12791910;23;20198;-78
2023/04/20 16:24:44;;;;;;;5.57;3.07;;;17.50;70.60;;;;;;12768369;23;20224;-78
2023/04/20 16:29:46;;;;;;;9.47;4.87;;;17.40;77.90;;;;;;12767798;23;20562;-78
2023/04/20 16:34:49;;;;;;;14.87;4.43;;;17.30;66.50;;;;;;12792736;23;20204;-78
2023/04/20 16:39:51;;;;;;;10.30;5.03;;;17.00;64.90;;;;;;12741422;23;20270;-79
2023/04/20 16:44:54;;;;;;;20.73;5.53;;;16.80;67.20;;;;;;12764947;23;20651;-78
2023/04/20 16:49:57;;;;;;;24.17;8.87;;;16.50;72.60;;;;;;12791433;23;20218;-81
2023/04/20 16:55:00;;;;;;;21.67;5.10;;;16.30;78.90;;;;;;12793603;23;20171;-81
2023/04/20 17:00:05;;;;;;;9.03;4.80;;;16.00;83.10;;;;;;12791439;23;20254;-78
2023/04/20 17:05:08;;;;;;;35.10;10.87;;;15.60;86.60;;;;;;12773249;23;20171;-78
2023/04/20 17:10:10;;;;;;;20.87;6.90;;;15.40;93.90;;;;;;12792905;23;20630;-78
2023/04/20 17:15:13;;;;;;;27.50;6.20;;;15.40;95.80;;;;;;12793724;23;20206;-78
2023/04/20 17:20:15;;;;;;;11.67;5.27;;;15.10;95.60;;;;;;12800014;23;20180;-78
2023/04/20 17:25:18;;;;;;;16.37;5.33;;;14.80;96.20;;;;;;12792898;23;20556;-78
2023/04/20 17:30:21;;;;;;;17.20;7.30;;;14.50;98.30;;;;;;12792767;23;20172;-78
2023/04/20 17:35:23;;;;;;;18.93;7.90;;;14.50;99.60;;;;;;12792938;23;20178;-78
2023/04/20 17:40:26;;;;;;;25.27;10.53;;;14.30;99.90;;;;;;12792523;23;20586;-78
2023/04/20 17:45:28;;;;;;;17.07;6.27;;;14.20;99.90;;;;;;12790272;23;20263;-78
2023/04/20 17:50:32;;;;;;;19.90;6.97;;;14.20;99.90;;;;;;12789514;23;20504;-82
2023/04/20 17:55:34;;;;;;;18.20;8.23;;;14.30;99.90;;;;;;12767059;23;20172;-80
2023/04/20 18:00:37;;;;;;;29.47;9.37;;;14.20;99.90;;;;;;12792251;23;20191;-80
2023/04/20 18:05:40;;;;;;;14.13;6.10;;;13.90;99.90;;;;;;12764957;23;20177;-79
2023/04/20 18:10:43;;;;;;;13.83;5.73;;;13.40;99.90;;;;;;12791894;23;20234;-80
2023/04/20 18:15:45;;;;;;;17.83;6.23;;;13.40;99.90;;;;;;12791328;23;20180;-80
2023/04/20 18:20:48;;;;;;;24.80;5.70;;;;;;;;;;12790500;23;20227;-79
2023/04/20 18:25:51;;;;;;;16.97;6.17;;;12.80;99.90;;;;;;12790975;23;20164;-80
2023/04/20 18:30:55;;;;;;;17.30;5.33;;;12.60;99.90;;;;;;12791142;23;20179;-79
2023/04/20 18:36:00;;;;;;;19.43;5.60;;;12.40;99.90;;;;;;12791701;23;20252;-79
2023/04/20 18:41:03;;;;;;;15.23;5.90;;;;;;;;;;12790579;23;20522;-78
2023/04/20 18:46:05;;;;;;;14.83;6.33;;;11.70;99.90;;;;;;12790359;23;20200;-80
2023/04/20 18:51:08;;;;;;;15.37;5.97;;;12.00;99.90;;;;;;12788217;23;20540;-81
2023/04/20 18:56:10;;;;;;;9.13;5.47;;;11.80;99.90;;;;;;12808419;23;20208;-80
2023/04/20 19:01:13;;;;;;;16.27;6.60;;;;;;;;;;12789855;23;20254;-80
2023/04/20 19:06:16;;;;;;;20.63;6.87;;;11.70;99.90;;;;;;12764906;23;20184;-80
2023/04/20 19:11:18;;;;;;;13.00;6.17;;;11.50;99.90;;;;;;12790561;23;20245;-81
2023/04/20 19:16:21;;;;;;;11.87;5.67;;;11.40;99.90;;;;;;12791289;23;20503;-81
2023/04/20 19:21:23;;;;;;;16.47;6.50;;;11.30;99.90;;;;;;12741508;23;20231;-82
2023/04/20 19:26:26;;;;;;;15.90;7.43;;;11.20;99.90;;;;;;12783317;23;20167;-80
2023/04/20 19:31:35;;;;;;;15.37;8.17;;;10.80;99.90;;;;;;12763388;23;20172;-81
2023/04/20 19:36:39;;;;;;;8.23;5.23;;;10.80;99.90;;;;;;12788442;23;20215;-79
2023/04/20 19:41:42;;;;;;;7.80;5.17;;;10.80;99.90;;;;;;12789841;23;20669;-79
2023/04/20 19:46:44;;;;;;;9.10;5.53;;;11.10;99.90;;;;;;12789195;23;20204;-79
2023/04/20 19:51:47;;;;;;;11.67;7.10;;;11.00;99.90;;;;;;12791939;23;20203;-79
2023/04/20 19:56:49;;;;;;;12.23;6.00;;;11.10;99.90;;;;;;12765485;23;20173;-79
2023/04/20 20:01:52;;;;;;;15.87;7.83;;;10.80;99.90;;;;;;12764938;23;20216;-80
2023/04/20 20:06:55;;;;;;;13.63;9.00;;;10.70;99.90;;;;;;12764343;23;20184;-80
2023/04/20 20:11:59;;;;;;;20.27;9.43;;;10.70;99.90;;;;;;12764341;23;20184;-80
2023/04/20 20:17:03;;;;;;;18.80;10.33;;;10.60;99.90;;;;;;12790114;23;20242;-79
2023/04/20 20:22:05;;;;;;;22.83;10.63;;;10.40;99.90;;;;;;12763606;23;20228;-79
2023/04/20 20:27:08;;;;;;;15.27;8.20;;;10.40;99.90;;;;;;12742615;23;20219;-80
2023/04/20 20:32:10;;;;;;;16.17;9.40;;;10.40;99.90;;;;;;12766313;23;20191;-79
2023/04/20 20:37:13;;;;;;;16.70;11.77;;;10.50;99.90;;;;;;12810741;23;20200;-79
2023/04/20 20:42:16;;;;;;;18.43;11.13;;;10.50;99.90;;;;;;12794549;23;20188;-80
2023/04/20 20:47:18;;;;;;;14.93;9.67;;;10.60;99.90;;;;;;12794045;23;20239;-79
2023/04/20 20:52:21;;;;;;;26.07;12.20;;;10.60;99.90;;;;;;12767993;23;20183;-80
2023/04/20 20:57:24;;;;;;;17.17;10.87;;;10.60;99.90;;;;;;12793355;23;20181;-80
2023/04/20 21:02:26;;;;;;;19.37;11.47;;;10.60;99.90;;;;;;12792699;23;20524;-80
2023/04/20 21:07:29;;;;;;;24.40;11.97;;;10.50;99.90;;;;;;12810394;23;20209;-80
2023/04/20 21:12:32;;;;;;;22.80;11.77;;;10.60;99.90;;;;;;12766351;23;20789;-80
2023/04/20 21:17:34;;;;;;;17.40;11.10;;;10.50;99.90;;;;;;12809043;23;20230;-79
2023/04/20 21:22:37;;;;;;;20.47;13.60;;;10.50;99.90;;;;;;12810627;23;20195;-79
2023/04/20 21:27:40;;;;;;;13.57;7.97;;;10.60;99.90;;;;;;12792692;23;20540;-79
2023/04/20 21:32:42;;;;;;;12.03;8.33;;;10.60;99.90;;;;;;12792394;23;20203;-79
2023/04/20 21:37:45;;;;;;;20.80;13.37;;;10.80;99.90;;;;;;12792920;23;20509;-79
2023/04/20 21:42:47;;;;;;;14.03;11.23;;;10.90;99.90;;;;;;12766689;23;20574;-79
2023/04/20 21:47:50;;;;;;;25.10;12.50;;;10.80;99.90;;;;;;12789717;23;20195;-80
2023/04/20 21:52:53;;;;;;;8.97;7.33;;;10.80;99.90;;;;;;12789808;23;20483;-79
2023/04/20 21:57:56;;;;;;;25.73;14.67;;;10.70;99.90;;;;;;12789277;23;20187;-79
2023/04/20 22:02:58;;;;;;;20.73;15.37;;;10.50;99.90;;;;;;12763012;23;20599;-81
2023/04/20 22:08:01;;;;;;;16.80;12.00;;;10.40;99.90;;;;;;12789046;23;20167;-79
2023/04/20 22:13:05;;;;;;;24.40;16.03;;;10.30;99.90;;;;;;12789916;23;20172;-80
2023/04/20 22:18:10;;;;;;;22.33;16.17;;;10.20;99.90;;;;;;12790028;23;20219;-80
2023/04/20 22:23:12;;;;;;;20.70;15.77;;;10.20;99.90;;;;;;12789369;23;20195;-80
2023/04/20 22:28:15;;;;;;;23.13;17.00;;;10.10;99.90;;;;;;12789022;23;20211;-80
2023/04/20 22:33:18;;;;;;;20.20;16.03;;;10.20;99.90;;;;;;12788036;23;20636;-80
2023/04/20 22:38:20;;;;;;;16.67;13.57;;;10.10;99.90;;;;;;12789063;23;20200;-80
2023/04/20 22:43:23;;;;;;;24.00;16.20;;;10.20;99.90;;;;;;12788610;23;20539;-78
2023/04/20 22:48:26;;;;;;;24.30;15.80;;;10.30;99.90;;;;;;12736543;23;1243725;-79
2023/04/20 22:53:28;;;;;;;23.80;17.03;;;10.30;99.90;;;;;;12764864;23;20714;-79
2023/04/20 22:58:31;;;;;;;23.20;16.17;;;10.50;99.90;;;;;;12792070;23;20212;-79
2023/04/20 23:03:33;;;;;;;25.27;17.00;;;10.40;99.90;;;;;;12766311;23;20188;-79
2023/04/20 23:08:36;;;;;;;15.50;11.47;;;10.30;99.90;;;;;;12765760;23;20638;-79
2023/04/20 23:13:40;;;;;;;13.40;11.13;;;10.30;99.90;;;;;;12764185;23;20187;-79
2023/04/20 23:18:42;;;;;;;24.07;13.87;;;10.40;99.90;;;;;;12791233;23;20191;-79
2023/04/20 23:23:45;;;;;;;18.17;14.40;;;10.30;99.90;;;;;;12791627;23;20239;-79
2023/04/20 23:28:50;;;;;;;21.43;15.17;;;10.30;99.90;;;;;;12791584;23;20235;-79
2023/04/20 23:33:53;;;;;;;22.73;16.07;;;10.10;99.90;;;;;;12805935;23;20237;-79
2023/04/20 23:38:56;;;;;;;24.57;17.17;;;10.10;99.90;;;;;;12790754;23;20184;-79
2023/04/20 23:43:58;;;;;;;17.83;12.93;;;10.10;99.90;;;;;;12791701;23;20236;-79
2023/04/20 23:49:01;;;;;;;17.37;13.53;;;10.20;99.90;;;;;;12791840;23;20196;-79
2023/04/20 23:54:03;;;;;;;22.60;15.47;;;10.00;99.90;;;;;;12792244;23;20555;-78
2023/04/20 23:59:06;;;;;;;20.83;14.77;;;10.00;99.90;;;;;;12766624;23;20185;-79
